Time;durP1;ratioP1;P1;durP2;ratioP2;P2;SDS_P1;SDS_P2;PMS_P1;PMS_P2;Temp;Humidity;BMP_temperature;BMP_pressure;BME280_temperature;BME280_humidity;BME280_pressure;Samples;Min_cycle;Max_cycle;Signal;HPM_P1;HPM_P2
2023/12/13 00:00:46;;;;;;;3.67;3.58;;;;;;;7.09;100.00;99192.25;6056969;23;20034;-70
2023/12/13 00:03:17;;;;;;;3.58;3.47;;;;;;;7.04;100.00;99199.53;6054276;23;20044;-70
2023/12/13 00:06:00;;;;;;;3.88;3.67;;;;;;;7.02;100.00;99193.59;6021518;23;20103;-71
2023/12/13 00:08:38;;;;;;;3.90;3.60;;;;;;;7.01;100.00;99191.06;6062583;23;20033;-70
2023/12/13 00:11:04;;;;;;;3.70;3.60;;;;;;;6.33;100.00;99086.53;6051116;23;20054;-70
2023/12/13 00:13:31;;;;;;;4.15;3.95;;;;;;;6.93;100.00;99192.38;6067135;23;20063;-70
2023/12/13 00:15:57;;;;;;;3.80;3.70;;;;;;;6.90;100.00;99195.19;6049545;23;20300;-71
2023/12/13 00:18:31;;;;;;;3.50;3.40;;;;;;;6.90;100.00;99194.34;6049968;23;20046;-70
2023/12/13 00:20:57;;;;;;;4.80;3.75;;;;;;;6.41;100.00;99121.72;6050887;23;20479;-71
2023/12/13 00:23:24;;;;;;;5.07;4.88;;;;;;;6.88;100.00;99217.06;6047494;23;20390;-70
2023/12/13 00:25:50;;;;;;;3.70;3.60;;;;;;;6.06;100.00;99088.22;6073514;23;20053;-70
2023/12/13 00:28:17;;;;;;;3.67;3.50;;;;;;;6.49;100.00;99155.97;6053158;23;20218;-72
2023/12/13 00:30:45;;;;;;;3.95;3.75;;;;;;;6.45;100.00;99149.25;6074258;23;20021;-72
2023/12/13 00:33:23;;;;;;;3.58;3.47;;;;;;;6.96;100.00;99218.28;6033021;23;20007;-70
2023/12/13 00:35:50;;;;;;;3.67;3.58;;;;;;;6.98;100.00;99219.00;6056598;23;20579;-70
2023/12/13 00:38:17;;;;;;;3.47;3.38;;;;;;;7.08;100.00;99234.13;6079592;23;20293;-71
2023/12/13 00:40:46;;;;;;;8.27;3.90;;;;;;;6.98;100.00;99205.97;6050329;23;20323;-70
2023/12/13 00:43:16;;;;;;;4.00;3.83;;;;;;;7.18;100.00;99230.00;6073730;23;20002;-70
2023/12/13 00:45:46;;;;;;;4.28;3.90;;;;;;;7.18;100.00;99219.56;6024228;23;20042;-69
2023/12/13 00:48:43;;;;;;;3.45;3.35;;;;;;;7.33;100.00;99228.19;6079538;23;20079;-70
2023/12/13 00:51:37;;;;;;;3.30;3.20;;;;;;;7.38;100.00;99223.53;5979870;23;20274;-71
2023/12/13 00:54:28;;;;;;;3.30;3.20;;;;;;;7.45;100.00;99226.59;6088806;23;20076;-70
2023/12/13 00:57:12;;;;;;;;;;;;;;;;;;;;;
2023/12/13 01:03:50;;;;;;;4.63;4.32;;;;;;;7.55;100.00;99220.69;5923710;24;20032;-70
2023/12/13 01:06:54;;;;;;;3.53;3.40;;;;;;;7.56;100.00;99214.56;6047092;23;20022;-71
2023/12/13 01:09:24;;;;;;;4.60;4.40;;;;;;;6.69;100.00;99068.72;6048264;23;20033;-72
2023/12/13 01:12:31;;;;;;;;;;;;;;;;;;;;;
2023/12/13 01:15:51;;;;;;;3.63;3.53;;;;;;;7.62;100.00;99208.09;6051179;23;20034;-71
2023/12/13 01:19:17;;;;;;;;;;;;;;;;;;;;;
2023/12/13 01:22:39;;;;;;;;;;;;;;;;;;;;;
2023/12/13 01:25:12;;;;;;;5.43;4.13;;;;;;;6.80;100.00;99105.41;6099016;23;20256;-70
2023/12/13 01:27:39;;;;;;;3.53;3.42;;;;;;;6.84;100.00;99098.25;6045914;23;20036;-71
2023/12/13 01:30:08;;;;;;;3.50;3.40;;;;;;;7.20;100.00;99165.53;6068089;23;20026;-70
2023/12/13 01:32:34;;;;;;;3.92;3.72;;;;;;;6.89;100.00;99127.47;6027676;23;20514;-71
2023/12/13 01:35:02;;;;;;;3.90;3.70;;;;;;;7.16;100.00;99177.91;6068499;23;20441;-72
2023/12/13 01:37:29;;;;;;;5.80;5.50;;;;;;;7.14;100.00;99185.00;6049280;23;20030;-71
2023/12/13 01:39:56;;;;;;;3.95;3.80;;;;;;;7.04;100.00;99175.25;6080630;23;20010;-70
2023/12/13 01:42:23;;;;;;;3.75;3.60;;;;;;;6.93;100.00;99153.25;6048643;23;20038;-70
2023/12/13 01:44:51;;;;;;;3.83;3.67;;;;;;;7.18;100.00;99203.91;6063511;23;20057;-71
2023/12/13 01:47:18;;;;;;;4.82;4.63;;;;;;;7.30;100.00;99215.38;6017540;23;20339;-70
2023/12/13 01:49:45;;;;;;;4.05;3.85;;;;;;;7.28;100.00;99199.78;6070598;23;20032;-71
2023/12/13 01:52:14;;;;;;;3.60;3.50;;;;;;;7.16;100.00;99174.47;6034403;23;20039;-72
2023/12/13 01:54:41;;;;;;;4.55;4.35;;;;;;;7.12;100.00;99170.38;6066297;23;20045;-72
2023/12/13 01:57:09;;;;;;;3.42;3.33;;;;;;;6.83;100.00;99120.84;6054042;23;20029;-70
2023/12/13 01:59:37;;;;;;;3.90;3.70;;;;;;;7.31;100.00;99199.59;6070520;23;20041;-69
2023/12/13 02:02:04;;;;;;;7.38;3.92;;;;;;;6.85;100.00;99118.16;6052363;23;20022;-70
2023/12/13 02:04:31;;;;;;;3.85;3.65;;;;;;;6.41;100.00;99067.00;6071476;23;20512;-71
2023/12/13 02:06:58;;;;;;;3.72;3.63;;;;;;;6.94;100.00;99135.84;6050178;23;20109;-70
2023/12/13 02:09:24;;;;;;;4.70;4.50;;;;;;;7.27;100.00;99192.06;6079513;23;20022;-70
2023/12/13 02:11:51;;;;;;;3.92;3.72;;;;;;;7.29;100.00;99190.19;6049811;23;20082;-72
2023/12/13 02:14:18;;;;;;;3.70;3.60;;;;;;;7.31;100.00;99190.94;6072126;23;20026;-70
2023/12/13 02:16:44;;;;;;;3.60;3.50;;;;;;;7.30;100.00;99192.72;6027882;23;20101;-71
2023/12/13 02:19:11;;;;;;;5.43;5.22;;;;;;;7.32;100.00;99193.44;6071086;23;20025;-70
2023/12/13 02:21:38;;;;;;;3.40;3.30;;;;;;;7.24;100.00;99171.38;6049888;23;20029;-70
2023/12/13 02:24:06;;;;;;;3.50;3.40;;;;;;;7.36;100.00;99191.50;6053223;23;20026;-70
2023/12/13 02:26:40;;;;;;;3.70;3.50;;;;;;;7.37;100.00;99193.16;6038395;23;20082;-69
2023/12/13 02:29:07;;;;;;;3.67;3.55;;;;;;;6.95;100.00;99127.06;6064841;23;20174;-69
2023/12/13 02:31:35;;;;;;;4.03;3.83;;;;;;;7.34;100.00;99190.75;6038099;23;20033;-70
2023/12/13 02:34:01;;;;;;;4.03;3.83;;;;;;;7.41;100.00;99204.25;6081260;23;20149;-72
2023/12/13 02:36:28;;;;;;;3.65;3.55;;;;;;;7.42;100.00;99198.06;6047722;23;20435;-70
2023/12/13 02:38:55;;;;;;;4.25;4.05;;;;;;;7.44;100.00;99198.81;6068561;23;20430;-70
2023/12/13 02:41:21;;;;;;;5.07;4.88;;;;;;;7.27;100.00;99173.78;6038124;23;20016;-70
2023/12/13 02:43:48;;;;;;;3.83;3.63;;;;;;;7.07;100.00;99122.88;6077443;23;20508;-70
2023/12/13 02:46:14;;;;;;;4.05;3.70;;;;;;;7.50;100.00;99194.06;6051994;23;20025;-69
2023/12/13 02:48:41;;;;;;;3.90;3.70;;;;;;;7.50;100.00;99196.66;6073805;23;20248;-70
2023/12/13 02:51:08;;;;;;;3.60;3.50;;;;;;;7.53;100.00;99204.28;6048699;23;20022;-71
2023/12/13 02:53:37;;;;;;;5.55;3.90;;;;;;;6.93;100.00;99110.69;6075604;23;20005;-70
2023/12/13 02:56:04;;;;;;;3.80;3.70;;;;;;;5.49;100.00;98859.91;6051623;23;20041;-70
2023/12/13 02:58:30;;;;;;;5.43;3.95;;;;;;;7.55;100.00;99199.81;6078132;23;20100;-73
2023/12/13 03:00:57;;;;;;;4.70;4.40;;;;;;;7.56;100.00;99196.28;6052875;23;20018;-70
2023/12/13 03:03:24;;;;;;;5.05;4.85;;;;;;;7.53;100.00;99187.78;6074595;23;20512;-70
2023/12/13 03:05:50;;;;;;;3.65;3.55;;;;;;;7.50;100.00;99194.06;6052428;23;20119;-71
2023/12/13 03:08:17;;;;;;;3.42;3.33;;;;;;;7.45;100.00;99180.44;6068285;23;20029;-69
2023/12/13 03:10:43;;;;;;;3.70;3.50;;;;;;;7.41;100.00;99180.75;6053549;23;20084;-70
2023/12/13 03:13:10;;;;;;;4.03;3.83;;;;;;;7.29;100.00;99179.75;6067346;23;20045;-72
2023/12/13 03:15:36;;;;;;;3.90;3.70;;;;;;;7.07;100.00;99117.66;6022429;23;20089;-70
2023/12/13 03:18:03;;;;;;;12.32;4.25;;;;;;;7.41;100.00;99167.69;6078371;23;20681;-69
2023/12/13 03:20:30;;;;;;;3.50;3.40;;;;;;;7.24;100.00;99145.31;6040113;23;20489;-71
2023/12/13 03:22:57;;;;;;;3.95;3.78;;;;;;;7.02;100.00;99119.72;6071075;23;20041;-71
2023/12/13 03:25:23;;;;;;;5.15;4.95;;;;;;;7.14;100.00;99142.44;6021608;23;20041;-70
2023/12/13 03:27:51;;;;;;;3.95;3.83;;;;;;;6.90;100.00;99098.69;6078084;23;20029;-70
2023/12/13 03:30:17;;;;;;;4.32;4.03;;;;;;;7.42;100.00;99177.19;6051088;23;20023;-71
2023/12/13 03:32:44;;;;;;;3.70;3.60;;;;;;;7.45;100.00;99175.22;6070305;23;20057;-70
2023/12/13 03:35:14;;;;;;;4.13;3.95;;;;;;;7.29;100.00;99146.66;6027005;23;20015;-71
2023/12/13 03:37:40;;;;;;;3.85;3.67;;;;;;;6.81;100.00;99070.56;6073048;23;20045;-72
2023/12/13 03:40:07;;;;;;;4.00;3.80;;;;;;;7.41;100.00;99162.47;6044956;23;20092;-72
2023/12/13 03:42:34;;;;;;;3.45;3.35;;;;;;;7.50;100.00;99167.94;6074512;23;20049;-69
2023/12/13 03:45:03;;;;;;;4.05;3.85;;;;;;;7.34;100.00;99142.00;6049422;23;20242;-68
2023/12/13 03:47:29;;;;;;;4.43;4.22;;;;;;;7.52;100.00;99165.25;6076965;23;20021;-69
2023/12/13 03:49:56;;;;;;;4.63;4.25;;;;;;;6.18;100.00;98962.44;6045663;23;20302;-70
2023/12/13 03:52:22;;;;;;;4.40;4.20;;;;;;;7.48;100.00;99155.94;6071000;23;20419;-71
2023/12/13 03:54:49;;;;;;;3.70;3.60;;;;;;;7.46;100.00;99170.88;6050735;23;20015;-70
2023/12/13 03:57:15;;;;;;;17.38;4.53;;;;;;;7.48;100.00;99151.56;6069692;23;20022;-70
2023/12/13 03:59:42;;;;;;;3.92;3.72;;;;;;;7.28;100.00;99142.38;6040686;23;20030;-71
2023/12/13 04:02:08;;;;;;;4.13;3.92;;;;;;;7.38;100.00;99121.75;6071986;23;20042;-69
2023/12/13 04:04:35;;;;;;;4.07;3.88;;;;;;;7.59;100.00;99150.84;6048764;23;20101;-70
2023/12/13 04:07:02;;;;;;;4.10;3.90;;;;;;;7.82;100.00;99182.47;6072162;23;20014;-70
2023/12/13 04:09:31;;;;;;;4.93;4.72;;;;;;;7.84;100.00;99175.34;6046862;23;20022;-71
2023/12/13 04:11:57;;;;;;;4.40;4.13;;;;;;;6.94;100.00;99028.94;6058039;23;20020;-71
2023/12/13 04:14:24;;;;;;;4.20;4.00;;;;;;;7.59;100.00;99125.56;6042563;23;20026;-71
2023/12/13 04:16:50;;;;;;;4.20;3.90;;;;;;;7.88;100.00;99176.88;6082203;23;20041;-69
2023/12/13 04:19:35;;;;;;;15.35;14.57;;;;;;;7.90;100.00;99178.44;6031690;23;20302;-70
2023/12/13 04:22:23;;;;;;;3.85;3.65;;;;;;;7.37;100.00;99083.53;5975454;23;20073;-70
2023/12/13 04:24:50;;;;;;;3.65;3.55;;;;;;;7.97;100.00;99177.06;6054462;23;20031;-70
2023/12/13 04:27:16;;;;;;;4.57;4.38;;;;;;;7.97;100.00;99182.28;6073526;23;20009;-70
2023/12/13 04:29:43;;;;;;;4.05;3.85;;;;;;;7.96;100.00;99180.63;6050107;23;20049;-71
2023/12/13 04:32:09;;;;;;;4.20;4.00;;;;;;;7.68;100.00;99139.00;6077423;23;20302;-72
2023/12/13 04:34:36;;;;;;;5.40;4.90;;;;;;;7.86;100.00;99169.13;6050501;23;20030;-71
2023/12/13 04:37:03;;;;;;;5.07;4.57;;;;;;;7.92;100.00;99180.94;6080678;23;20374;-70
2023/12/13 04:39:29;;;;;;;6.70;5.55;;;;;;;7.91;100.00;99177.47;6047043;23;20034;-69
2023/12/13 04:41:56;;;;;;;10.73;6.28;;;;;;;7.59;100.00;99127.34;6082421;23;20017;-71
2023/12/13 04:44:27;;;;;;;4.47;4.10;;;;;;;7.88;100.00;99180.31;6050731;23;20446;-70
2023/12/13 04:46:55;;;;;;;5.50;5.20;;;;;;;7.28;100.00;99084.16;6077448;23;20057;-73
2023/12/13 04:49:21;;;;;;;5.68;5.30;;;;;;;7.31;100.00;99092.59;6053150;23;20030;-70
2023/12/13 04:51:48;;;;;;;4.88;4.40;;;;;;;7.85;100.00;99175.25;6080921;23;20077;-69
2023/12/13 04:54:15;;;;;;;5.63;4.43;;;;;;;7.71;100.00;99149.22;6054517;23;20023;-71
2023/12/13 04:56:43;;;;;;;3.97;3.78;;;;;;;7.84;100.00;99176.22;6081203;23;20041;-69
2023/12/13 04:59:10;;;;;;;4.10;3.90;;;;;;;7.71;100.00;99160.50;6050532;23;20037;-69
2023/12/13 05:01:37;;;;;;;3.70;3.60;;;;;;;7.77;100.00;99167.94;6078387;23;20045;-69
2023/12/13 05:04:04;;;;;;;4.10;3.90;;;;;;;7.38;100.00;99109.53;6025926;23;20609;-71
2023/12/13 05:06:30;;;;;;;3.50;3.40;;;;;;;7.58;100.00;99143.97;6076303;23;20041;-71
2023/12/13 05:08:57;;;;;;;4.03;3.83;;;;;;;7.24;100.00;99093.94;6049532;23;20367;-70
2023/12/13 05:11:23;;;;;;;4.90;4.70;;;;;;;7.63;100.00;99160.16;6074833;23;20006;-71
2023/12/13 05:13:50;;;;;;;4.00;3.80;;;;;;;6.97;100.00;99065.22;6052611;23;20899;-70
2023/12/13 05:16:16;;;;;;;3.60;3.47;;;;;;;7.60;100.00;99165.59;6073035;23;20182;-70
2023/12/13 05:18:43;;;;;;;4.55;4.18;;;;;;;7.59;100.00;99162.13;6026620;23;20021;-70
2023/12/13 05:21:10;;;;;;;7.47;6.03;;;;;;;7.51;100.00;99155.72;6075564;23;20614;-70
2023/12/13 05:23:36;;;;;;;8.48;5.47;;;;;;;7.60;100.00;99165.59;6024940;23;20038;-70
2023/12/13 05:26:04;;;;;;;5.72;5.10;;;;;;;7.61;100.00;99164.66;6080814;23;20090;-70
2023/12/13 05:28:30;;;;;;;4.00;3.80;;;;;;;7.58;100.00;99159.63;6049835;23;20102;-70
2023/12/13 05:30:57;;;;;;;4.40;4.20;;;;;;;7.28;100.00;99138.94;6076913;23;20261;-70
2023/12/13 05:33:23;;;;;;;5.47;4.97;;;;;;;7.56;100.00;99166.72;6048589;23;20030;-70
2023/12/13 05:35:50;;;;;;;4.00;3.80;;;;;;;7.11;100.00;99099.09;6081880;23;20001;-73
2023/12/13 05:38:16;;;;;;;3.85;3.70;;;;;;;7.22;100.00;99124.50;6052267;23;20163;-70
2023/12/13 05:40:43;;;;;;;5.47;5.07;;;;;;;7.12;100.00;99113.81;6078078;23;20527;-72
2023/12/13 05:43:10;;;;;;;5.32;4.88;;;;;;;7.43;100.00;99169.25;6052094;23;20018;-70
2023/12/13 05:45:39;;;;;;;4.55;4.15;;;;;;;7.46;100.00;99160.44;6073487;23;20056;-70
2023/12/13 05:48:06;;;;;;;4.30;4.10;;;;;;;7.39;100.00;99159.97;6028479;23;20161;-71
2023/12/13 05:50:32;;;;;;;3.78;3.60;;;;;;;7.38;100.00;99150.47;6080053;23;20061;-71
2023/12/13 05:52:59;;;;;;;3.92;3.72;;;;;;;6.64;100.00;99036.91;6047553;23;20117;-71
2023/12/13 05:55:26;;;;;;;5.88;5.57;;;;;;;6.88;100.00;99076.25;6053524;23;20030;-69
2023/12/13 05:57:52;;;;;;;4.03;3.83;;;;;;;7.31;100.00;99159.63;6046662;23;20555;-70
2023/12/13 06:00:19;;;;;;;4.10;3.90;;;;;;;7.31;100.00;99152.63;6080389;23;20515;-70
2023/12/13 06:02:45;;;;;;;4.70;4.40;;;;;;;7.28;100.00;99163.25;6052227;23;20473;-71
2023/12/13 06:05:22;;;;;;;5.72;5.43;;;;;;;7.03;100.00;99119.59;6070491;23;20019;-70
2023/12/13 06:07:49;;;;;;;4.38;4.15;;;;;;;7.31;100.00;99157.00;6026219;23;20031;-71
2023/12/13 06:10:17;;;;;;;4.88;4.57;;;;;;;6.10;100.00;98973.34;6053127;23;20037;-70
2023/12/13 06:12:43;;;;;;;5.25;4.75;;;;;;;6.86;100.00;99092.00;6053838;23;20037;-70
2023/12/13 06:15:10;;;;;;;4.95;4.55;;;;;;;7.30;100.00;99168.38;6072655;23;20030;-69
2023/12/13 06:17:36;;;;;;;4.30;4.10;;;;;;;7.28;100.00;99162.44;6045029;23;20046;-70
2023/12/13 06:20:03;;;;;;;5.53;5.13;;;;;;;7.27;100.00;99165.97;6074951;23;20766;-70
2023/12/13 06:22:30;;;;;;;4.72;4.43;;;;;;;7.20;100.00;99155.09;6043060;23;20394;-71
2023/12/13 06:24:56;;;;;;;4.50;4.20;;;;;;;6.94;100.00;99118.44;6079526;23;20018;-72
2023/12/13 06:27:23;;;;;;;5.68;5.28;;;;;;;6.61;100.00;99077.03;6038741;23;20295;-69
2023/12/13 06:29:49;;;;;;;3.88;3.67;;;;;;;7.04;100.00;99156.97;6080448;23;20094;-70
2023/12/13 06:32:19;;;;;;;4.07;3.88;;;;;;;6.96;100.00;99153.06;6048232;23;20034;-70
2023/12/13 06:34:47;;;;;;;5.78;3.85;;;;;;;6.91;100.00;99149.06;6057370;23;20054;-70
2023/12/13 06:37:16;;;;;;;4.35;4.10;;;;;;;6.38;100.00;99076.69;6039069;23;20030;-70
2023/12/13 06:39:43;;;;;;;4.20;4.00;;;;;;;6.71;100.00;99116.41;6062871;23;20280;-70
2023/12/13 06:42:09;;;;;;;4.93;4.63;;;;;;;6.88;100.00;99149.28;6038307;23;20206;-69
2023/12/13 06:44:37;;;;;;;4.28;3.92;;;;;;;7.06;100.00;99170.75;6075383;23;20045;-72
2023/12/13 06:47:05;;;;;;;4.18;3.97;;;;;;;7.10;100.00;99178.28;6049182;23;20093;-70
2023/12/13 06:49:32;;;;;;;4.10;3.90;;;;;;;6.45;100.00;99077.13;6075464;23;20046;-69
2023/12/13 06:51:59;;;;;;;4.80;4.50;;;;;;;7.17;100.00;99176.97;6042918;23;20026;-69
2023/12/13 06:54:25;;;;;;;3.65;3.55;;;;;;;6.33;100.00;99034.41;6059989;23;20273;-71
2023/12/13 06:56:52;;;;;;;3.83;3.65;;;;;;;7.21;100.00;99187.22;6050383;23;20045;-70
2023/12/13 06:59:18;;;;;;;5.45;5.20;;;;;;;7.22;100.00;99188.88;6052140;23;20268;-70
2023/12/13 07:01:45;;;;;;;3.88;3.70;;;;;;;7.23;100.00;99180.13;6049389;23;20393;-70
2023/12/13 07:04:11;;;;;;;5.68;5.07;;;;;;;7.23;100.00;99180.97;6058375;23;20029;-71
2023/12/13 07:06:38;;;;;;;4.30;3.90;;;;;;;6.89;100.00;99132.69;6044445;23;20470;-70
2023/12/13 07:09:05;;;;;;;4.90;4.50;;;;;;;7.24;100.00;99181.81;6062877;23;20058;-70
2023/12/13 07:11:31;;;;;;;3.80;3.60;;;;;;;7.26;100.00;99185.19;6036411;23;20416;-70
2023/12/13 07:13:59;;;;;;;4.40;4.20;;;;;;;7.21;100.00;99172.41;6069570;23;20033;-71
2023/12/13 07:16:26;;;;;;;4.28;3.95;;;;;;;6.57;100.00;99073.78;6032384;23;20038;-69
2023/12/13 07:18:53;;;;;;;4.30;4.10;;;;;;;7.19;100.00;99175.09;6079847;23;20026;-70
2023/12/13 07:21:19;;;;;;;5.80;5.32;;;;;;;7.21;100.00;99177.63;6015396;23;20053;-70
2023/12/13 07:23:46;;;;;;;4.07;3.80;;;;;;;7.00;100.00;99143.28;6075432;23;20536;-70
2023/12/13 07:26:16;;;;;;;4.22;4.03;;;;;;;7.19;100.00;99177.72;6011565;23;20025;-70
2023/12/13 07:28:44;;;;;;;3.80;3.60;;;;;;;7.17;100.00;99171.75;6019099;23;20037;-70
2023/12/13 07:31:10;;;;;;;4.10;3.90;;;;;;;7.13;100.00;99167.66;6076445;23;20370;-71
2023/12/13 07:33:38;;;;;;;3.88;3.67;;;;;;;6.61;100.00;99100.47;6042145;23;20017;-70
2023/12/13 07:36:05;;;;;;;4.30;4.10;;;;;;;6.69;100.00;99105.22;6068333;23;20448;-71
2023/12/13 07:38:32;;;;;;;3.40;3.30;;;;;;;7.06;100.00;99162.94;6049217;23;20373;-70
2023/12/13 07:40:58;;;;;;;4.65;4.38;;;;;;;6.53;100.00;99076.66;6072304;23;20469;-71
2023/12/13 07:43:26;;;;;;;5.75;5.45;;;;;;;7.00;100.00;99156.31;6044793;23;20075;-69
2023/12/13 07:45:54;;;;;;;4.00;3.80;;;;;;;7.05;100.00;99176.91;6077003;23;20117;-71
2023/12/13 07:48:22;;;;;;;4.40;4.15;;;;;;;6.56;100.00;99073.88;6054974;23;20067;-70
2023/12/13 07:50:56;;;;;;;4.28;4.00;;;;;;;7.10;100.00;99160.03;6079845;23;20025;-70
2023/12/13 07:53:23;;;;;;;5.55;5.28;;;;;;;6.47;100.00;99062.25;6048888;23;20076;-69
2023/12/13 07:55:50;;;;;;;7.57;3.80;;;;;;;6.57;100.00;99068.59;6078081;23;20036;-69
2023/12/13 07:58:17;;;;;;;4.65;4.35;;;;;;;7.18;100.00;99157.78;6053075;23;20021;-70
2023/12/13 08:00:45;;;;;;;4.05;3.80;;;;;;;7.18;100.00;99152.56;6082224;23;20021;-69
2023/12/13 08:03:11;;;;;;;5.05;4.75;;;;;;;7.13;100.00;99138.97;6054414;23;20350;-68
2023/12/13 08:05:38;;;;;;;15.05;5.15;;;;;;;7.22;100.00;99155.81;6083694;23;20409;-69
2023/12/13 08:08:05;;;;;;;4.07;3.78;;;;;;;7.00;100.00;99106.78;6053778;23;20042;-68
2023/12/13 08:10:31;;;;;;;4.22;4.03;;;;;;;6.64;100.00;99048.19;6070351;23;20053;-69
2023/12/13 08:12:58;;;;;;;5.22;4.65;;;;;;;6.58;100.00;99025.09;6053616;23;20019;-69
2023/12/13 08:15:25;;;;;;;5.97;5.68;;;;;;;7.29;100.00;99132.78;6076350;23;20101;-69
2023/12/13 08:17:51;;;;;;;4.85;4.55;;;;;;;7.27;100.00;99137.25;6052209;23;20450;-69
2023/12/13 08:20:18;;;;;;;4.75;4.35;;;;;;;6.95;100.00;99083.56;6054288;23;20034;-68
2023/12/13 08:22:46;;;;;;;3.60;3.50;;;;;;;6.75;100.00;99045.72;6048658;23;20077;-68
2023/12/13 08:25:12;;;;;;;6.03;5.72;;;;;;;7.27;100.00;99126.81;6064457;23;20049;-69
2023/12/13 08:27:39;;;;;;;6.70;4.18;;;;;;;7.28;100.00;99116.28;6051783;23;20031;-70
2023/12/13 08:30:06;;;;;;;7.85;4.07;;;;;;;7.30;100.00;99119.63;6057447;23;20030;-71
2023/12/13 08:32:33;;;;;;;4.10;3.90;;;;;;;7.27;100.00;99119.00;6053533;23;20023;-70
2023/12/13 08:34:59;;;;;;;4.65;4.35;;;;;;;7.31;100.00;99108.25;6078188;23;20443;-68
2023/12/13 08:37:25;;;;;;;5.93;5.55;;;;;;;6.83;100.00;99031.38;6050337;23;20038;-71
2023/12/13 08:39:52;;;;;;;5.30;4.80;;;;;;;7.34;100.00;99096.81;6079657;23;20041;-71
2023/12/13 08:42:19;;;;;;;4.72;4.45;;;;;;;7.09;100.00;99063.63;6053987;23;20017;-71
2023/12/13 08:44:46;;;;;;;4.05;3.85;;;;;;;7.40;100.00;99127.72;6074969;23;20026;-70
2023/12/13 08:47:12;;;;;;;5.00;4.78;;;;;;;7.32;100.00;99085.63;6029238;23;20042;-70
2023/12/13 08:49:39;;;;;;;4.53;4.22;;;;;;;7.11;100.00;99059.97;6067051;23;20033;-70
2023/12/13 08:52:06;;;;;;;4.13;3.92;;;;;;;7.33;100.00;99087.28;6044848;23;20465;-71
2023/12/13 08:54:33;;;;;;;4.22;4.03;;;;;;;7.40;100.00;99093.78;6077481;23;20033;-70
2023/12/13 08:56:59;;;;;;;4.20;4.00;;;;;;;7.39;100.00;99087.72;6055422;23;20363;-72
2023/12/13 08:59:26;;;;;;;5.45;5.15;;;;;;;6.63;100.00;98957.88;6057460;23;20050;-72
2023/12/13 09:01:52;;;;;;;4.13;3.92;;;;;;;7.21;100.00;99051.56;6042953;23;20071;-69
2023/12/13 09:04:19;;;;;;;3.72;3.55;;;;;;;7.42;100.00;99078.88;6080132;23;20022;-71
2023/12/13 09:06:45;;;;;;;5.00;4.70;;;;;;;7.37;100.00;99070.50;6053538;23;20032;-69
2023/12/13 09:09:12;;;;;;;5.20;4.80;;;;;;;7.37;100.00;99060.88;6080376;23;20559;-69
2023/12/13 09:11:38;;;;;;;4.35;4.15;;;;;;;7.31;100.00;99036.97;6027876;23;20081;-68
2023/12/13 09:14:05;;;;;;;4.60;4.30;;;;;;;7.56;100.00;99070.97;6080407;23;20040;-68
2023/12/13 09:16:31;;;;;;;4.72;4.35;;;;;;;7.16;100.00;99015.34;6026242;23;20042;-70
2023/12/13 09:18:58;;;;;;;6.03;4.82;;;;;;;7.58;100.00;99063.88;6057093;23;20033;-69
2023/12/13 09:21:25;;;;;;;6.40;5.85;;;;;;;7.17;100.00;98983.91;6038281;23;20018;-73
2023/12/13 09:23:51;;;;;;;5.45;5.05;;;;;;;7.55;100.00;99035.34;6074600;23;20014;-70
2023/12/13 09:26:18;;;;;;;5.53;5.15;;;;;;;7.79;100.00;99074.66;6053850;23;20382;-70
2023/12/13 09:28:44;;;;;;;3.97;3.78;;;;;;;7.86;100.00;99075.09;6080900;23;20104;-72
2023/12/13 09:31:12;;;;;;;5.38;4.43;;;;;;;7.74;100.00;99055.84;6039800;23;20022;-71
2023/12/13 09:33:39;;;;;;;6.70;5.03;;;;;;;7.28;100.00;98969.34;6053968;23;20037;-71
2023/12/13 09:36:07;;;;;;;4.93;4.65;;;;;;;7.90;100.00;99060.88;6047747;23;20410;-72
2023/12/13 09:38:33;;;;;;;5.60;5.20;;;;;;;7.40;100.00;98978.97;6065429;23;20074;-71
2023/12/13 09:41:00;;;;;;;9.50;5.30;;;;;;;7.90;100.00;99060.88;6023509;23;20027;-70
2023/12/13 09:43:26;;;;;;;8.13;6.60;;;;;;;7.70;100.00;99027.44;6064642;23;20014;-69
2023/12/13 09:45:54;;;;;;;4.10;3.90;;;;;;;7.95;100.00;99058.78;6041675;23;20061;-69
2023/12/13 09:48:22;;;;;;;4.70;4.43;;;;;;;7.98;100.00;99057.75;6037085;23;20526;-70
2023/12/13 09:50:57;;;;;;;4.93;4.53;;;;;;;8.04;100.00;99065.19;6028735;23;20033;-73
2023/12/13 09:53:25;;;;;;;5.78;5.47;;;;;;;8.07;100.00;99077.19;6049680;23;20059;-71
2023/12/13 09:55:52;;;;;;;4.53;4.22;;;;;;;8.10;100.00;99071.78;6053096;23;20023;-71
2023/12/13 09:58:19;;;;;;;3.70;3.60;;;;;;;8.21;100.00;99077.09;6066564;23;20082;-70
2023/12/13 10:00:45;;;;;;;4.70;4.40;;;;;;;8.21;100.00;99074.47;6046704;23;20173;-71
2023/12/13 10:03:13;;;;;;;5.25;4.90;;;;;;;8.34;100.00;99079.72;6084978;23;20172;-71
2023/12/13 10:05:43;;;;;;;5.00;4.70;;;;;;;8.23;100.00;99043.00;6051844;23;20136;-72
2023/12/13 10:08:11;;;;;;;4.75;4.45;;;;;;;8.46;100.00;99070.19;6076786;23;20163;-70
2023/12/13 10:10:38;;;;;;;4.53;4.22;;;;;;;8.52;100.00;99069.75;6047466;23;20102;-70
2023/12/13 10:13:06;;;;;;;5.25;4.85;;;;;;;7.79;100.00;98945.84;6054882;23;20038;-72
2023/12/13 10:15:33;;;;;;;5.88;5.43;;;;;;;8.26;100.00;98999.22;6036758;23;20411;-70
2023/12/13 10:18:01;;;;;;;5.22;4.82;;;;;;;7.43;100.00;98860.47;6067597;23;20457;-71
2023/12/13 10:20:30;;;;;;;5.80;5.40;;;;;;;8.60;100.00;99033.47;6050057;23;20462;-70
2023/12/13 10:22:57;;;;;;;5.32;4.95;;;;;;;8.61;100.00;99029.91;6072259;23;20029;-70
2023/12/13 10:25:23;;;;;;;6.35;5.95;;;;;;;8.40;100.00;98993.03;6045934;23;20473;-72
2023/12/13 10:27:53;;;;;;;4.57;4.38;;;;;;;8.65;100.00;99028.75;6069851;23;20270;-70
2023/12/13 10:30:20;;;;;;;6.15;5.70;;;;;;;8.65;100.00;99015.66;6052141;23;20025;-70
2023/12/13 10:32:46;;;;;;;12.20;5.82;;;;;;;8.27;100.00;98972.13;6076596;23;20093;-70
2023/12/13 10:35:13;;;;;;;20.52;6.63;;;;;;;8.10;100.00;98915.84;6043137;23;20015;-71
2023/12/13 10:37:42;;;;;;;5.03;4.72;;;;;;;7.89;100.00;98906.88;6065504;23;20492;-70
2023/12/13 10:40:12;;;;;;;7.20;5.05;;;;;;;8.74;100.00;99019.41;6045324;23;20024;-72
2023/12/13 10:42:40;;;;;;;4.15;3.92;;;;;;;8.77;100.00;99020.00;6081222;23;20457;-70
2023/12/13 10:45:13;;;;;;;4.63;4.35;;;;;;;7.56;100.00;98820.38;6053645;23;20122;-70
2023/12/13 10:47:49;;;;;;;5.00;4.70;;;;;;;8.68;100.00;98986.69;6066565;23;20488;-70
2023/12/13 10:50:17;;;;;;;5.25;4.85;;;;;;;8.53;100.00;98959.03;6030252;23;20496;-71
2023/12/13 10:52:45;;;;;;;5.63;5.25;;;;;;;8.75;100.00;98980.06;6052408;23;20002;-70
2023/12/13 10:55:14;;;;;;;4.85;4.63;;;;;;;9.08;100.00;99016.97;6051859;23;20350;-71
2023/12/13 10:57:42;;;;;;;7.43;4.63;;;;;;;9.13;100.00;99007.84;6074903;23;20030;-71
2023/12/13 11:00:09;;;;;;;4.13;3.92;;;;;;;9.24;100.00;99011.44;6054119;23;20032;-71
2023/12/13 11:02:44;;;;;;;5.07;4.68;;;;;;;9.30;100.00;99000.50;6077193;23;20374;-71
2023/12/13 11:05:13;;;;;;;4.72;4.43;;;;;;;8.84;100.00;98901.84;6047657;23;20006;-71
2023/12/13 11:07:44;;;;;;;5.50;5.10;;;;;;;8.26;100.00;98789.28;6078959;23;20319;-70
2023/12/13 11:10:13;;;;;;;4.70;4.45;;;;;;;9.52;100.00;98979.66;6047750;23;20206;-71
2023/12/13 11:12:52;;;;;;;4.50;4.30;;;;;;;9.16;100.00;98921.25;6050464;23;20092;-71
2023/12/13 11:15:19;;;;;;;5.63;5.30;;;;;;;9.14;100.00;98888.28;6073081;23;20088;-70
2023/12/13 11:17:50;;;;;;;4.97;4.57;;;;;;;9.03;100.00;98862.91;6049868;23;20507;-70
2023/12/13 11:20:17;;;;;;;4.28;4.07;;;;;;;9.70;100.00;98959.09;6051390;23;20021;-71
2023/12/13 11:22:50;;;;;;;5.63;4.72;;;;;;;9.03;100.00;98841.16;6044439;23;20097;-70
2023/12/13 11:25:16;;;;;;;5.75;5.32;;;;;;;9.60;100.00;98950.25;6078593;23;20018;-70
2023/12/13 11:27:55;;;;;;;4.85;4.65;;;;;;;9.59;100.00;98943.34;6047901;23;20030;-69
2023/12/13 11:30:21;;;;;;;7.55;5.65;;;;;;;9.56;100.00;98944.44;6079060;23;20341;-71
2023/12/13 11:32:49;;;;;;;4.80;4.50;;;;;;;9.24;100.00;98883.19;6044651;23;20030;-70
2023/12/13 11:35:18;;;;;;;6.07;5.68;;;;;;;9.64;100.00;98924.66;6071767;23;20041;-69
2023/12/13 11:37:50;;;;;;;4.68;4.30;;;;;;;9.62;100.00;98924.75;6023478;23;20030;-71
2023/12/13 11:40:17;;;;;;;4.90;4.30;;;;;;;9.64;100.00;98935.13;6074214;23;20048;-70
2023/12/13 11:42:44;;;;;;;4.97;4.68;;;;;;;9.56;100.00;98915.63;6025878;23;20721;-72
2023/12/13 11:45:11;;;;;;;5.65;4.60;;;;;;;9.67;100.00;98934.91;6052875;23;20026;-70
2023/12/13 11:47:39;;;;;;;4.93;4.65;;;;;;;9.62;100.00;98926.56;6044294;23;20092;-71
2023/12/13 11:50:10;;;;;;;4.75;4.35;;;;;;;9.72;100.00;98938.00;6076879;23;20437;-72